Time;durP1;ratioP1;P1;durP2;ratioP2;P2;SDS_P1;SDS_P2;PMS_P1;PMS_P2;Temp;Humidity;BMP_temperature;BMP_pressure;BME280_temperature;BME280_humidity;BME280_pressure;Samples;Min_cycle;Max_cycle;Signal;HPM_P1;HPM_P2
2022/12/06 00:01:16;;;;;;;13.85;8.63;;;5.30;99.90;;;;;;5068619;28;20110;-57
2022/12/06 00:03:43;;;;;;;14.30;7.38;;;5.30;99.90;;;;;;5058053;28;20049;-56
2022/12/06 00:06:11;;;;;;;12.90;7.45;;;5.30;99.90;;;;;;5050139;28;20032;-53
2022/12/06 00:08:38;;;;;;;10.88;7.30;;;5.30;99.90;;;;;;5064137;28;20040;-57
2022/12/06 00:11:09;;;;;;;12.82;7.55;;;5.30;99.90;;;;;;5069585;28;20032;-58
2022/12/06 00:13:36;;;;;;;13.35;8.05;;;5.40;99.90;;;;;;5068372;28;20433;-56
2022/12/06 00:16:03;;;;;;;14.68;8.30;;;5.40;99.90;;;;;;5067502;28;20489;-56
2022/12/06 00:18:29;;;;;;;15.38;7.13;;;5.40;99.90;;;;;;5067787;28;20131;-56
2022/12/06 00:20:55;;;;;;;;;;;5.40;99.90;;;;;;5069402;28;20105;-57
2022/12/06 00:23:20;;;;;;;13.65;8.18;;;5.30;99.90;;;;;;5072182;28;20436;-54
2022/12/06 00:25:46;;;;;;;15.10;9.67;;;5.30;99.90;;;;;;5072384;28;20079;-57
2022/12/06 00:28:12;;;;;;;16.37;9.33;;;5.30;99.90;;;;;;5066826;28;20033;-55
2022/12/06 00:30:37;;;;;;;15.63;8.17;;;5.30;99.90;;;;;;5067736;28;20037;-56
2022/12/06 00:33:03;;;;;;;14.50;8.57;;;5.40;99.90;;;;;;5070929;28;20048;-54
2022/12/06 00:35:28;;;;;;;16.83;8.93;;;5.30;99.90;;;;;;5069655;28;20040;-55
2022/12/06 00:37:54;;;;;;;26.97;9.70;;;5.40;99.90;;;;;;5064224;28;20048;-58
2022/12/06 00:40:20;;;;;;;13.03;7.83;;;5.40;99.90;;;;;;5071432;28;20047;-55
2022/12/06 00:42:45;;;;;;;14.20;7.97;;;5.40;99.90;;;;;;5054280;28;20041;-54
2022/12/06 00:45:11;;;;;;;18.93;7.97;;;5.40;99.90;;;;;;5068216;28;20032;-56
2022/12/06 00:47:36;;;;;;;10.63;7.53;;;5.40;99.90;;;;;;5056712;28;20033;-57
2022/12/06 00:50:02;;;;;;;15.50;8.70;;;5.40;99.90;;;;;;5053823;28;20079;-53
2022/12/06 00:52:28;;;;;;;13.55;7.68;;;5.40;99.90;;;;;;5054078;28;20036;-57
2022/12/06 00:54:53;;;;;;;17.00;7.80;;;5.40;99.90;;;;;;5056969;28;20083;-55
2022/12/06 00:57:19;;;;;;;13.57;7.17;;;5.40;99.90;;;;;;5066988;28;20029;-58
2022/12/06 00:59:45;;;;;;;10.37;6.57;;;5.40;99.90;;;;;;5053678;28;20104;-53
2022/12/06 01:02:10;;;;;;;8.53;6.73;;;5.40;99.90;;;;;;5070097;28;20071;-53
2022/12/06 01:04:36;;;;;;;11.63;6.27;;;5.40;99.90;;;;;;5070979;28;20072;-56
2022/12/06 01:07:02;;;;;;;17.23;7.78;;;5.40;99.90;;;;;;5059935;28;20044;-56
2022/12/06 01:09:29;;;;;;;14.23;6.67;;;5.40;99.90;;;;;;5065240;28;20033;-58
2022/12/06 01:11:56;;;;;;;14.07;7.32;;;5.40;99.90;;;;;;5064849;28;20796;-52
2022/12/06 01:14:23;;;;;;;9.57;5.45;;;5.40;99.90;;;;;;5051650;28;20044;-56
2022/12/06 01:16:48;;;;;;;13.43;6.03;;;5.40;99.90;;;;;;5052486;28;20087;-55
2022/12/06 01:19:14;;;;;;;12.67;6.67;;;5.40;99.90;;;;;;5052744;28;20452;-54
2022/12/06 01:21:40;;;;;;;14.13;6.17;;;5.40;99.90;;;;;;5057470;28;20596;-57
2022/12/06 01:24:05;;;;;;;12.47;6.33;;;5.40;99.90;;;;;;5071607;28;20041;-54
2022/12/06 01:26:33;;;;;;;13.00;6.97;;;5.40;99.90;;;;;;5072419;28;20451;-54
2022/12/06 01:28:59;;;;;;;19.05;6.05;;;5.40;99.90;;;;;;5070004;28;20036;-58
2022/12/06 01:31:26;;;;;;;11.10;5.85;;;5.40;99.90;;;;;;5052845;28;20558;-56
2022/12/06 01:33:52;;;;;;;15.00;7.18;;;5.40;99.90;;;;;;5050663;28;20048;-55
2022/12/06 01:36:19;;;;;;;10.63;5.47;;;5.40;99.90;;;;;;5052179;28;20048;-55
2022/12/06 01:38:53;;;;;;;14.90;5.40;;;5.40;99.90;;;;;;5052890;28;20045;-56
2022/12/06 01:41:20;;;;;;;19.40;7.53;;;5.40;99.90;;;;;;5051677;28;20059;-57
2022/12/06 01:43:47;;;;;;;17.73;6.70;;;5.40;99.90;;;;;;5052546;28;20406;-57
2022/12/06 01:46:19;;;;;;;16.67;6.47;;;5.40;99.90;;;;;;5065925;28;20037;-56
2022/12/06 01:48:47;;;;;;;11.50;6.25;;;5.40;99.90;;;;;;5051665;28;20041;-58
2022/12/06 01:51:15;;;;;;;16.83;6.70;;;5.40;99.90;;;;;;5053156;28;20076;-57
2022/12/06 01:53:42;;;;;;;14.50;6.15;;;5.30;99.90;;;;;;5050478;28;20067;-54
2022/12/06 01:56:08;;;;;;;17.85;7.15;;;5.30;99.90;;;;;;5050428;28;20052;-56
2022/12/06 01:58:39;;;;;;;11.65;5.88;;;5.40;99.90;;;;;;5051059;28;20111;-59
2022/12/06 02:01:07;;;;;;;14.63;5.70;;;5.30;99.90;;;;;;5052621;28;20033;-56
2022/12/06 02:03:33;;;;;;;12.40;5.78;;;5.30;99.90;;;;;;5051984;28;20099;-57
2022/12/06 02:06:04;;;;;;;11.80;5.70;;;5.30;99.90;;;;;;5064498;28;20448;-57
2022/12/06 02:08:31;;;;;;;13.18;5.68;;;5.30;99.90;;;;;;5055682;28;20291;-56
2022/12/06 02:10:57;;;;;;;;;;;5.30;99.90;;;;;;5057015;28;20037;-57
2022/12/06 02:13:24;;;;;;;13.63;6.28;;;5.30;99.90;;;;;;5052497;28;20438;-60
2022/12/06 02:16:05;;;;;;;13.30;5.82;;;5.30;99.90;;;;;;5063472;28;20100;-57
2022/12/06 02:18:56;;;;;;;11.07;5.93;;;5.30;99.90;;;;;;5049740;28;20045;-57
2022/12/06 02:21:43;;;;;;;14.20;5.70;;;5.30;99.90;;;;;;5068885;28;20037;-57
2022/12/06 02:24:29;;;;;;;11.10;5.45;;;5.30;99.90;;;;;;5062673;28;20095;-56
2022/12/06 02:27:14;;;;;;;14.30;5.40;;;5.30;99.90;;;;;;5051089;28;20045;-57
2022/12/06 02:29:53;;;;;;;15.27;5.97;;;5.30;99.90;;;;;;5051117;28;20533;-58
2022/12/06 02:32:50;;;;;;;11.20;4.53;;;5.30;99.90;;;;;;5051018;28;20087;-55
2022/12/06 02:35:27;;;;;;;14.10;5.07;;;5.30;99.90;;;;;;5049784;28;20045;-54
2022/12/06 02:37:56;;;;;;;;;;;5.30;99.90;;;;;;5051238;28;20037;-57
2022/12/06 02:40:29;;;;;;;13.38;4.07;;;5.30;99.90;;;;;;5054209;28;19916;-58
2022/12/06 02:43:05;;;;;;;8.07;4.57;;;5.30;99.90;;;;;;5068486;28;20048;-56
2022/12/06 02:45:39;;;;;;;13.30;4.80;;;5.30;99.90;;;;;;5051880;28;20036;-56
2022/12/06 02:48:07;;;;;;;10.18;4.10;;;5.30;99.90;;;;;;5050675;28;20040;-55
2022/12/06 02:50:41;;;;;;;11.75;4.90;;;5.30;99.90;;;;;;5050966;28;20041;-59
2022/12/06 02:53:11;;;;;;;9.60;5.15;;;5.30;99.90;;;;;;5050609;28;20052;-53
2022/12/06 02:55:37;;;;;;;16.13;5.47;;;5.30;99.90;;;;;;5051005;28;20121;-58
2022/12/06 02:58:02;;;;;;;12.38;4.85;;;5.30;99.90;;;;;;5050411;28;20578;-54
2022/12/06 03:00:36;;;;;;;11.43;4.53;;;5.30;99.90;;;;;;5050579;28;20048;-54
2022/12/06 03:03:29;;;;;;;7.97;4.88;;;5.30;99.90;;;;;;5063917;28;20517;-53
2022/12/06 03:06:01;;;;;;;17.92;5.13;;;5.30;99.90;;;;;;5065887;28;20025;-59
2022/12/06 03:08:44;;;;;;;10.52;4.95;;;5.30;99.90;;;;;;5069767;28;20081;-54
2022/12/06 03:11:11;;;;;;;8.88;4.88;;;5.30;99.90;;;;;;5070235;28;20051;-55
2022/12/06 03:14:02;;;;;;;8.18;4.60;;;5.30;99.90;;;;;;5067292;28;20044;-56
2022/12/06 03:16:28;;;;;;;8.13;4.97;;;5.30;99.90;;;;;;5069744;28;20444;-55
2022/12/06 03:19:03;;;;;;;6.00;4.17;;;5.30;99.90;;;;;;5069674;28;20055;-56
2022/12/06 03:21:33;;;;;;;11.57;4.20;;;5.20;99.90;;;;;;5066404;28;20045;-53
2022/12/06 03:23:59;;;;;;;7.80;3.63;;;5.30;99.90;;;;;;5062078;28;20502;-56
2022/12/06 03:26:30;;;;;;;7.65;3.78;;;5.20;99.90;;;;;;5050628;28;20409;-54
2022/12/06 03:28:58;;;;;;;10.25;4.10;;;5.30;99.90;;;;;;5049718;28;20273;-52
2022/12/06 03:31:28;;;;;;;11.75;3.60;;;5.30;99.90;;;;;;5048786;28;20078;-55
2022/12/06 03:34:22;;;;;;;9.48;3.38;;;5.30;99.90;;;;;;5049812;28;20304;-58
2022/12/06 03:36:49;;;;;;;8.57;4.13;;;5.20;99.90;;;;;;5041630;28;20456;-54
2022/12/06 03:39:23;;;;;;;6.00;3.20;;;5.20;99.90;;;;;;5057021;28;20047;-56
2022/12/06 03:41:54;;;;;;;9.02;4.07;;;5.20;99.90;;;;;;5065812;28;20439;-57
2022/12/06 03:44:20;;;;;;;8.45;3.65;;;5.20;99.90;;;;;;5065118;28;20477;-57
2022/12/06 03:46:53;;;;;;;7.93;3.33;;;5.20;99.90;;;;;;5065605;28;20044;-55
2022/12/06 03:49:26;;;;;;;5.05;3.22;;;5.10;99.90;;;;;;5056764;28;20043;-55
2022/12/06 03:51:52;;;;;;;5.30;2.42;;;5.20;99.90;;;;;;5068347;28;20051;-56
2022/12/06 03:54:17;;;;;;;8.27;3.13;;;5.10;99.90;;;;;;5059561;28;20393;-55
2022/12/06 03:56:43;;;;;;;7.30;3.13;;;5.20;99.90;;;;;;5049211;28;20068;-55
2022/12/06 03:59:10;;;;;;;7.93;2.83;;;5.20;99.90;;;;;;5049757;28;20052;-57
2022/12/06 04:01:36;;;;;;;4.82;2.45;;;5.10;99.90;;;;;;5048882;28;20049;-56
2022/12/06 04:04:03;;;;;;;7.53;2.95;;;5.10;99.90;;;;;;5048741;28;20044;-56
2022/12/06 04:06:28;;;;;;;9.48;3.38;;;5.10;99.90;;;;;;5061751;28;20490;-59
2022/12/06 04:09:51;;;;;;;7.70;2.57;;;5.10;99.90;;;;;;5057976;28;20101;-56
2022/12/06 04:11:40;;;;;;;4.97;2.72;;;5.10;99.90;;;;;;5058054;28;20041;-56
2022/12/06 04:14:05;;;;;;;8.37;2.63;;;5.00;99.90;;;;;;5061441;28;20513;-55
2022/12/06 04:19:15;;;;;;;7.20;2.47;;;5.00;99.90;;;;;;5065996;28;20522;-59
2022/12/06 04:24:25;;;;;;;5.32;1.90;;;5.10;99.90;;;;;;5068660;28;20243;-59
2022/12/06 04:26:50;;;;;;;9.53;2.07;;;5.00;99.90;;;;;;5067534;28;20187;-56
2022/12/06 04:40:13;;;;;;;9.82;1.77;;;5.00;99.90;;;;;;5049450;28;20041;-55
2022/12/06 04:45:23;;;;;;;4.95;1.88;;;5.00;99.90;;;;;;5049521;28;20079;-55
2022/12/06 04:47:48;;;;;;;3.93;1.40;;;5.00;99.90;;;;;;5058046;28;20068;-57
2022/12/06 04:50:14;;;;;;;2.93;1.90;;;5.00;99.90;;;;;;5054263;28;20509;-58
2022/12/06 04:52:40;;;;;;;3.87;1.77;;;5.00;99.90;;;;;;5051368;28;20513;-55
2022/12/06 04:55:05;;;;;;;5.13;1.43;;;5.00;99.90;;;;;;5048067;28;20041;-53
2022/12/06 04:57:31;;;;;;;12.85;1.40;;;5.00;99.90;;;;;;5054595;28;20033;-55
2022/12/06 04:59:57;;;;;;;2.22;1.40;;;4.90;99.90;;;;;;5067208;28;20574;-54
2022/12/06 05:02:22;;;;;;;4.13;1.10;;;5.00;99.90;;;;;;5069384;28;20066;-55
2022/12/06 05:04:48;;;;;;;3.63;1.27;;;5.00;99.90;;;;;;5067988;28;20098;-56
2022/12/06 05:07:13;;;;;;;1.37;1.13;;;4.90;99.90;;;;;;5055660;28;20075;-55
2022/12/06 05:09:39;;;;;;;2.80;1.67;;;4.90;99.90;;;;;;5052392;28;20064;-57
2022/12/06 05:12:05;;;;;;;2.37;0.97;;;4.90;99.90;;;;;;5069424;28;20048;-56
2022/12/06 05:14:30;;;;;;;4.57;1.55;;;4.90;99.90;;;;;;5071209;28;20520;-55
2022/12/06 05:16:57;;;;;;;4.23;1.10;;;5.00;99.90;;;;;;5070475;28;20345;-60
2022/12/06 05:19:24;;;;;;;5.55;1.52;;;4.90;99.90;;;;;;5072602;28;20045;-56
2022/12/06 05:21:50;;;;;;;3.38;1.02;;;4.90;99.90;;;;;;5072143;28;20040;-56
2022/12/06 05:24:16;;;;;;;2.93;1.40;;;4.90;99.90;;;;;;5071341;28;20045;-55
2022/12/06 05:26:41;;;;;;;2.17;1.15;;;4.90;99.90;;;;;;5072277;28;20111;-58
2022/12/06 05:29:07;;;;;;;5.95;1.35;;;4.90;99.90;;;;;;5069862;28;20478;-57
2022/12/06 05:31:33;;;;;;;4.13;1.10;;;4.90;99.90;;;;;;5072537;28;20383;-56
2022/12/06 05:33:58;;;;;;;3.17;1.30;;;4.90;99.90;;;;;;5070613;28;20055;-57
2022/12/06 05:36:26;;;;;;;1.67;1.43;;;4.90;99.90;;;;;;5062446;28;20044;-56
2022/12/06 05:38:52;;;;;;;2.42;1.33;;;4.90;99.90;;;;;;5068554;28;20044;-55
2022/12/06 05:41:20;;;;;;;3.60;2.08;;;4.90;99.90;;;;;;5072024;28;20124;-56
2022/12/06 05:43:46;;;;;;;8.80;1.65;;;4.90;99.90;;;;;;5070467;28;20105;-54
2022/12/06 05:46:11;;;;;;;2.20;1.47;;;4.90;99.90;;;;;;5070435;28;20451;-58
2022/12/06 05:48:37;;;;;;;3.77;1.47;;;4.90;99.90;;;;;;5069742;28;20044;-58
2022/12/06 05:51:03;;;;;;;3.90;2.47;;;4.90;99.90;;;;;;5072159;28;20106;-56
2022/12/06 05:53:29;;;;;;;3.90;2.03;;;4.90;99.90;;;;;;5070957;28;20086;-57
2022/12/06 05:55:54;;;;;;;5.93;2.08;;;4.80;99.90;;;;;;5071910;28;20097;-56
2022/12/06 05:58:20;;;;;;;4.17;2.53;;;4.80;99.90;;;;;;5070847;28;20041;-58
2022/12/06 06:00:49;;;;;;;4.03;1.97;;;4.80;99.90;;;;;;5064919;28;20033;-59
2022/12/06 06:03:16;;;;;;;3.78;2.05;;;4.80;99.90;;;;;;5050703;28;20620;-57
2022/12/06 06:05:49;;;;;;;6.95;2.20;;;4.80;99.90;;;;;;5060345;28;20041;-57
2022/12/06 06:08:17;;;;;;;6.20;2.30;;;4.80;99.90;;;;;;5051330;28;20068;-56
2022/12/06 06:10:42;;;;;;;3.97;2.50;;;4.80;99.90;;;;;;5052086;28;20151;-57
2022/12/06 06:13:09;;;;;;;2.63;2.38;;;4.80;99.90;;;;;;5050698;28;20149;-58
2022/12/06 06:15:34;;;;;;;5.82;3.08;;;4.70;99.90;;;;;;5071338;28;20520;-58
2022/12/06 06:18:00;;;;;;;3.53;2.20;;;4.80;99.90;;;;;;5071179;28;20032;-54
2022/12/06 06:20:26;;;;;;;4.80;2.72;;;4.70;99.90;;;;;;5069650;28;20043;-56
2022/12/06 06:22:53;;;;;;;8.73;2.50;;;4.70;99.90;;;;;;5070977;28;20041;-57
2022/12/06 06:25:18;;;;;;;3.17;2.65;;;4.70;99.90;;;;;;5050919;28;20383;-56
2022/12/06 06:27:44;;;;;;;4.72;2.85;;;4.70;99.90;;;;;;5051432;28;20379;-54
2022/12/06 06:30:11;;;;;;;9.30;2.90;;;4.70;99.90;;;;;;5052889;28;20551;-57
2022/12/06 06:32:38;;;;;;;5.75;2.90;;;4.70;99.90;;;;;;5051004;28;20235;-57
2022/12/06 06:35:05;;;;;;;8.27;3.30;;;4.70;99.90;;;;;;5054947;28;20033;-59
2022/12/06 06:37:31;;;;;;;6.00;3.15;;;4.70;99.90;;;;;;5053466;28;20123;-56
2022/12/06 06:39:58;;;;;;;6.00;3.10;;;4.70;99.90;;;;;;5060886;28;20581;-57
2022/12/06 06:42:23;;;;;;;6.88;3.28;;;4.70;99.90;;;;;;5056652;28;20041;-57
2022/12/06 06:44:50;;;;;;;9.07;3.43;;;4.70;99.90;;;;;;5062323;28;20032;-55
2022/12/06 06:47:16;;;;;;;7.03;3.00;;;4.70;99.90;;;;;;5070500;28;20060;-57
2022/12/06 06:49:41;;;;;;;7.47;3.20;;;4.70;99.90;;;;;;5056184;28;20048;-57
2022/12/06 06:52:07;;;;;;;3.57;2.73;;;4.70;99.90;;;;;;5066845;28;20067;-53
2022/12/06 06:54:33;;;;;;;9.80;3.43;;;4.70;99.90;;;;;;5064208;28;20047;-56
2022/12/06 06:56:58;;;;;;;5.53;3.33;;;4.70;99.90;;;;;;5059955;28;20102;-58
2022/12/06 06:59:24;;;;;;;3.57;3.10;;;4.70;99.90;;;;;;5072233;28;20120;-56
2022/12/06 07:01:50;;;;;;;3.58;2.45;;;4.70;99.90;;;;;;5065651;28;20073;-56
2022/12/06 07:04:16;;;;;;;2.92;1.95;;;4.70;99.90;;;;;;5049091;28;20075;-57
2022/12/06 07:06:42;;;;;;;7.72;2.80;;;4.70;99.90;;;;;;5050427;28;20498;-59
2022/12/06 07:09:08;;;;;;;7.30;2.93;;;4.70;99.90;;;;;;5049449;28;20136;-54
2022/12/06 07:11:34;;;;;;;5.22;2.30;;;4.60;99.90;;;;;;5050601;28;20639;-55
2022/12/06 07:14:01;;;;;;;6.30;3.37;;;4.60;99.90;;;;;;5053578;28;20469;-56
2022/12/06 07:16:27;;;;;;;5.38;2.33;;;4.60;99.90;;;;;;5070190;28;20036;-56
2022/12/06 07:18:53;;;;;;;4.03;2.63;;;4.60;99.90;;;;;;5069672;28;20047;-54
2022/12/06 07:21:20;;;;;;;6.73;2.30;;;4.60;99.90;;;;;;5068046;28;20024;-56
2022/12/06 07:23:46;;;;;;;7.70;2.85;;;4.60;99.90;;;;;;5053752;28;20051;-54
2022/12/06 07:26:14;;;;;;;5.43;2.40;;;4.60;99.90;;;;;;5055869;28;20036;-56
2022/12/06 07:28:42;;;;;;;7.65;3.00;;;4.50;99.90;;;;;;5051004;28;20040;-56
2022/12/06 07:31:10;;;;;;;8.35;2.70;;;4.50;99.90;;;;;;5065795;28;20543;-57
2022/12/06 07:33:36;;;;;;;3.45;2.50;;;4.50;99.90;;;;;;5067921;28;20094;-56
2022/12/06 07:36:01;;;;;;;6.30;2.90;;;4.50;99.90;;;;;;5065024;28;20489;-57
2022/12/06 07:38:27;;;;;;;5.40;2.43;;;4.50;99.90;;;;;;5063378;28;20044;-57
2022/12/06 07:40:52;;;;;;;7.43;2.67;;;4.50;99.90;;;;;;5055803;28;20036;-56
2022/12/06 07:46:02;;;;;;;6.07;2.70;;;4.50;99.90;;;;;;5040767;28;20144;-60
2022/12/06 07:48:28;;;;;;;2.73;2.17;;;4.50;99.90;;;;;;5051746;28;20032;-57
2022/12/06 07:50:53;;;;;;;2.73;1.93;;;4.40;99.90;;;;;;5053302;28;20499;-56
2022/12/06 07:53:19;;;;;;;5.80;2.37;;;4.40;99.90;;;;;;5055488;28;20066;-55
2022/12/06 07:55:44;;;;;;;4.20;1.93;;;4.40;99.90;;;;;;5056127;28;20461;-59
2022/12/06 07:58:11;;;;;;;6.60;2.10;;;4.30;99.90;;;;;;5048669;28;20115;-55
2022/12/06 08:00:37;;;;;;;8.77;3.10;;;4.30;99.90;;;;;;5053929;28;20384;-59
2022/12/06 08:03:02;;;;;;;3.00;2.08;;;4.30;99.90;;;;;;5053619;28;20040;-55
2022/12/06 08:05:28;;;;;;;2.90;2.30;;;4.30;99.90;;;;;;5052860;28;20036;-59
2022/12/06 08:07:54;;;;;;;2.43;1.90;;;4.20;99.90;;;;;;5050316;28;20454;-56
2022/12/06 08:10:19;;;;;;;3.30;1.80;;;4.20;99.90;;;;;;5049699;28;20233;-59
2022/12/06 08:12:45;;;;;;;3.00;2.03;;;4.20;99.90;;;;;;5050919;28;20063;-58
2022/12/06 08:15:13;;;;;;;4.37;2.47;;;4.50;99.90;;;;;;5060173;28;20028;-58
2022/12/06 08:17:39;;;;;;;2.65;1.52;;;5.20;99.90;;;;;;5052753;28;20036;-58
2022/12/06 08:20:07;;;;;;;4.22;2.38;;;6.20;99.90;;;;;;5051845;28;20064;-55
2022/12/06 08:22:32;;;;;;;2.35;0.88;;;7.10;99.90;;;;;;5050231;28;20051;-59
2022/12/06 08:24:58;;;;;;;1.85;0.93;;;7.60;99.90;;;;;;5049992;28;20041;-58
2022/12/06 08:27:24;;;;;;;1.63;1.17;;;7.70;99.90;;;;;;5054747;28;20318;-58
2022/12/06 08:29:50;;;;;;;3.53;1.20;;;7.70;99.90;;;;;;5053470;28;20127;-57
2022/12/06 08:32:15;;;;;;;4.83;0.70;;;7.40;99.90;;;;;;5049981;28;20138;-57
2022/12/06 08:34:42;;;;;;;4.23;1.03;;;7.00;99.90;;;;;;5049420;28;20045;-59
2022/12/06 08:37:08;;;;;;;1.88;0.95;;;6.70;99.90;;;;;;5054659;28;20397;-57
2022/12/06 08:39:34;;;;;;;7.40;1.02;;;6.50;99.90;;;;;;5053679;28;20045;-60
2022/12/06 08:42:05;;;;;;;1.63;0.73;;;6.40;99.90;;;;;;5054503;28;20037;-60
2022/12/06 08:44:31;;;;;;;1.65;1.00;;;6.30;99.90;;;;;;5053453;28;20571;-60
2022/12/06 08:46:59;;;;;;;5.68;0.93;;;6.50;99.90;;;;;;5061154;28;20043;-61
2022/12/06 08:49:26;;;;;;;2.38;0.80;;;7.40;99.90;;;;;;5064090;28;20490;-60
2022/12/06 08:51:52;;;;;;;1.40;0.70;;;8.70;99.90;;;;;;5054377;28;20039;-60
2022/12/06 08:54:21;;;;;;;4.00;1.30;;;10.10;99.90;;;;;;5059153;28;20044;-59
2022/12/06 08:56:47;;;;;;;1.85;1.02;;;11.50;99.90;;;;;;5058141;28;20737;-61
2022/12/06 08:59:13;;;;;;;1.42;0.60;;;12.70;99.90;;;;;;5052423;28;20068;-60
2022/12/06 09:01:39;;;;;;;2.35;0.80;;;13.50;99.90;;;;;;5065259;28;20119;-56
2022/12/06 09:04:07;;;;;;;2.30;0.68;;;14.20;99.90;;;;;;5055425;28;20120;-59
2022/12/06 09:06:33;;;;;;;1.70;0.75;;;15.00;99.90;;;;;;5060311;28;20387;-61
2022/12/06 09:08:58;;;;;;;1.90;0.80;;;15.70;99.90;;;;;;5064051;28;20035;-62
2022/12/06 09:11:25;;;;;;;1.17;0.65;;;16.50;99.90;;;;;;5063723;28;20051;-60
2022/12/06 09:13:50;;;;;;;1.35;0.77;;;17.20;99.90;;;;;;5058024;28;20044;-57
2022/12/06 09:16:22;;;;;;;1.45;0.50;;;17.80;99.90;;;;;;5066771;28;20037;-60
2022/12/06 09:18:50;;;;;;;1.35;0.50;;;17.90;99.90;;;;;;5051146;28;20125;-57
2022/12/06 09:21:19;;;;;;;1.70;0.63;;;18.20;99.60;;;;;;5061152;28;20087;-59
2022/12/06 09:23:45;;;;;;;1.75;0.55;;;18.50;98.10;;;;;;5056615;28;20066;-61
2022/12/06 09:26:11;;;;;;;1.27;0.40;;;18.80;96.70;;;;;;5063923;28;20036;-58
2022/12/06 09:28:39;;;;;;;1.90;0.60;;;18.80;94.90;;;;;;5060169;28;20036;-60
2022/12/06 09:31:05;;;;;;;2.65;0.57;;;18.80;96.00;;;;;;5057507;28;20036;-60
2022/12/06 09:33:32;;;;;;;0.80;0.40;;;19.10;93.70;;;;;;5048488;28;20033;-60
2022/12/06 09:36:00;;;;;;;0.80;0.50;;;19.50;94.40;;;;;;5051026;28;20064;-60
2022/12/06 09:38:29;;;;;;;1.10;0.50;;;19.90;93.00;;;;;;5055810;28;20220;-60
2022/12/06 09:41:21;;;;;;;1.70;0.90;;;20.20;91.70;;;;;;5051866;28;20440;-60
2022/12/06 09:43:53;;;;;;;4.40;0.73;;;20.40;85.70;;;;;;5059711;28;20037;-60
2022/12/06 09:46:30;;;;;;;2.53;0.70;;;20.50;90.10;;;;;;5052519;28;20036;-59
2022/12/06 09:49:13;;;;;;;1.15;0.60;;;20.70;85.20;;;;;;5050339;28;20498;-59
2022/12/06 09:51:39;;;;;;;3.08;0.50;;;20.30;82.10;;;;;;5058248;28;20047;-58
2022/12/06 09:54:32;;;;;;;1.38;0.60;;;19.40;82.90;;;;;;5054960;28;20485;-59
2022/12/06 09:57:11;;;;;;;3.47;0.70;;;18.70;83.40;;;;;;5051146;28;20080;-59
2022/12/06 09:59:58;;;;;;;1.55;0.43;;;18.60;84.80;;;;;;5059930;28;20067;-60
2022/12/06 10:02:36;;;;;;;4.72;0.95;;;18.80;82.90;;;;;;5057768;28;20044;-61
2022/12/06 10:05:17;;;;;;;3.97;1.00;;;18.30;83.90;;;;;;5046050;28;20552;-60
2022/12/06 10:08:10;;;;;;;1.23;0.60;;;17.30;84.50;;;;;;5047869;28;20642;-60
2022/12/06 10:11:16;;;;;;;1.58;0.52;;;16.00;83.90;;;;;;5054015;28;20485;-56
2022/12/06 10:13:47;;;;;;;1.40;0.50;;;14.90;86.60;;;;;;5011370;28;20572;-59
2022/12/06 10:16:31;;;;;;;1.80;1.00;;;14.00;90.70;;;;;;5060064;28;20119;-58
2022/12/06 10:19:21;;;;;;;2.40;1.20;;;13.30;91.90;;;;;;5052987;28;20417;-57
2022/12/06 10:22:06;;;;;;;6.35;1.30;;;12.60;95.00;;;;;;5055203;28;20405;-57
2022/12/06 10:24:57;;;;;;;3.25;1.10;;;12.00;96.90;;;;;;5054143;28;20037;-59
2022/12/06 10:27:36;;;;;;;2.90;1.02;;;11.50;99.00;;;;;;5035403;28;20048;-58
2022/12/06 10:30:11;;;;;;;2.72;0.75;;;11.10;99.90;;;;;;5049217;28;20090;-60
2022/12/06 10:32:53;;;;;;;2.15;0.90;;;10.70;99.90;;;;;;5048214;28;20029;-58
2022/12/06 10:35:42;;;;;;;4.63;1.45;;;10.30;99.90;;;;;;5057700;28;20102;-57
2022/12/06 10:38:26;;;;;;;5.20;1.58;;;9.90;99.90;;;;;;5051816;28;20282;-56
2022/12/06 10:41:16;;;;;;;5.60;1.50;;;9.50;99.90;;;;;;5050925;28;20750;-57
2022/12/06 10:43:57;;;;;;;2.85;1.58;;;9.10;99.90;;;;;;5058203;28;20374;-58
2022/12/06 10:49:34;;;;;;;2.08;0.85;;;9.10;99.90;;;;;;5056801;28;20040;-61
2022/12/06 10:52:18;;;;;;;2.30;0.90;;;9.50;99.90;;;;;;5048471;28;20530;-58
2022/12/06 10:54:54;;;;;;;2.13;0.82;;;10.10;99.90;;;;;;5049543;28;20120;-58
2022/12/06 10:57:43;;;;;;;3.83;0.60;;;10.70;99.90;;;;;;5055034;28;20047;-60
2022/12/06 11:00:19;;;;;;;1.27;0.60;;;11.40;99.90;;;;;;5058261;28;20036;-59
2022/12/06 11:03:08;;;;;;;3.00;0.50;;;12.30;99.90;;;;;;5055091;28;20044;-59
2022/12/06 11:05:42;;;;;;;3.33;0.65;;;13.70;99.90;;;;;;5044233;28;20041;-60
2022/12/06 11:08:22;;;;;;;3.38;0.70;;;15.20;99.50;;;;;;5051514;28;20125;-58
2022/12/06 11:10:50;;;;;;;3.92;0.70;;;16.40;97.30;;;;;;5058893;28;20091;-59
2022/12/06 11:13:39;;;;;;;2.63;0.75;;;17.00;94.50;;;;;;5055067;28;20541;-60
2022/12/06 11:16:11;;;;;;;3.58;0.68;;;16.80;92.30;;;;;;5056550;28;20231;-59
2022/12/06 11:18:37;;;;;;;3.30;0.95;;;16.10;91.70;;;;;;5050528;28;20555;-57
2022/12/06 11:21:32;;;;;;;2.03;0.77;;;15.60;91.90;;;;;;5060064;28;20036;-56
2022/12/06 11:24:19;;;;;;;4.75;0.60;;;15.40;91.90;;;;;;5051457;28;20045;-60
2022/12/06 11:26:51;;;;;;;2.63;0.63;;;15.40;92.20;;;;;;5051986;28;20039;-56
2022/12/06 11:29:17;;;;;;;4.35;0.60;;;15.70;93.30;;;;;;5059433;28;20419;-59
2022/12/06 11:31:50;;;;;;;1.20;0.50;;;16.20;92.50;;;;;;5053336;28;20481;-57
2022/12/06 11:34:40;;;;;;;2.95;0.70;;;16.50;91.40;;;;;;5053022;28;20040;-61
2022/12/06 11:37:14;;;;;;;3.30;0.60;;;17.10;90.40;;;;;;5044739;28;20068;-61
2022/12/06 11:39:39;;;;;;;3.33;1.00;;;17.60;90.20;;;;;;5055047;28;20028;-57
2022/12/06 11:42:07;;;;;;;1.88;0.55;;;18.20;85.90;;;;;;5046948;28;20043;-58
2022/12/06 11:44:43;;;;;;;1.48;0.60;;;18.00;85.40;;;;;;5057563;28;20050;-60
2022/12/06 11:47:14;;;;;;;1.45;0.55;;;17.70;82.30;;;;;;5051946;28;20056;-57
2022/12/06 11:49:42;;;;;;;3.28;0.82;;;16.60;83.20;;;;;;5050277;28;20025;-56
2022/12/06 11:52:14;;;;;;;1.05;0.50;;;15.50;85.30;;;;;;5048453;28;20037;-58
2022/12/06 11:54:56;;;;;;;1.63;0.60;;;14.50;87.50;;;;;;5053090;28;20036;-59
2022/12/06 11:57:28;;;;;;;1.58;0.88;;;13.60;90.10;;;;;;5053610;28;20211;-59
2022/12/06 12:00:19;;;;;;;4.10;0.88;;;12.90;90.90;;;;;;5050869;28;20052;-56
2022/12/06 12:02:47;;;;;;;1.17;0.60;;;12.20;92.20;;;;;;5049987;28;20075;-59
2022/12/06 12:05:29;;;;;;;4.70;1.05;;;11.60;93.50;;;;;;5048171;28;20037;-60
2022/12/06 12:08:01;;;;;;;2.70;0.75;;;11.10;95.50;;;;;;5058929;28;20037;-59
2022/12/06 12:10:32;;;;;;;1.08;0.57;;;10.60;97.00;;;;;;5050308;28;20043;-61
2022/12/06 12:16:00;;;;;;;1.00;0.63;;;10.30;99.90;;;;;;5045735;28;20048;-60
2022/12/06 12:18:30;;;;;;;4.05;0.57;;;10.70;99.90;;;;;;5054454;28;20079;-59
2022/12/06 12:20:58;;;;;;;2.00;0.40;;;11.90;99.90;;;;;;5059433;28;20082;-59
2022/12/06 12:23:37;;;;;;;2.83;0.40;;;12.50;99.10;;;;;;5057900;28;20036;-57
2022/12/06 12:26:17;;;;;;;3.13;0.45;;;12.90;98.60;;;;;;5058896;28;20402;-56
2022/12/06 12:29:03;;;;;;;3.58;0.50;;;13.40;97.60;;;;;;5063206;28;20079;-57
2022/12/06 12:31:28;;;;;;;3.92;0.63;;;13.60;97.10;;;;;;5055676;28;20496;-56
2022/12/06 12:34:33;;;;;;;3.90;0.40;;;13.80;96.90;;;;;;5061806;28;20036;-60
2022/12/06 12:37:01;;;;;;;1.45;0.57;;;13.60;95.90;;;;;;5005465;28;20574;-59
2022/12/06 12:39:45;;;;;;;2.00;0.52;;;13.40;96.40;;;;;;5004093;28;20037;-61
2022/12/06 12:42:33;;;;;;;1.75;0.30;;;13.00;95.90;;;;;;5005844;28;20050;-54
2022/12/06 12:45:02;;;;;;;3.20;0.80;;;12.30;96.00;;;;;;5004637;28;20042;-61
2022/12/06 12:47:30;;;;;;;7.95;0.95;;;11.80;96.80;;;;;;5004945;28;20165;-58
2022/12/06 12:50:19;;;;;;;4.00;0.68;;;11.30;97.40;;;;;;5003590;28;20065;-56
2022/12/06 12:52:46;;;;;;;0.95;0.32;;;10.80;98.10;;;;;;5004830;28;20049;-57
2022/12/06 12:55:11;;;;;;;0.90;0.50;;;10.40;99.50;;;;;;5003484;28;20058;-58
2022/12/06 12:57:37;;;;;;;4.17;0.83;;;10.00;99.90;;;;;;4987207;28;20041;-60
2022/12/06 13:00:04;;;;;;;2.67;0.95;;;9.70;99.90;;;;;;4996720;28;20459;-60
2022/12/06 13:02:33;;;;;;;2.42;0.70;;;9.50;99.90;;;;;;5003407;28;20139;-58
2022/12/06 13:05:03;;;;;;;1.73;0.45;;;9.20;99.90;;;;;;4994541;28;20050;-58
2022/12/06 13:07:32;;;;;;;1.40;0.60;;;9.00;99.90;;;;;;5021391;28;20136;-57
2022/12/06 13:10:02;;;;;;;0.73;0.40;;;9.00;99.90;;;;;;5062481;28;20732;-59
2022/12/06 13:12:39;;;;;;;1.33;0.60;;;8.90;99.90;;;;;;5061843;28;20033;-60
2022/12/06 13:15:05;;;;;;;2.83;0.85;;;8.80;99.90;;;;;;5068187;28;20166;-57
2022/12/06 13:17:34;;;;;;;2.40;0.40;;;8.80;99.90;;;;;;5059586;28;20518;-61
2022/12/06 13:20:01;;;;;;;2.97;0.90;;;8.90;99.90;;;;;;5066296;28;20045;-60
2022/12/06 13:22:31;;;;;;;2.65;0.98;;;9.30;99.90;;;;;;5067923;28;20098;-61
2022/12/06 13:25:04;;;;;;;2.00;0.68;;;9.90;99.90;;;;;;5066319;28;20052;-60
2022/12/06 13:27:35;;;;;;;2.70;0.80;;;10.60;99.90;;;;;;5063916;28;20041;-58
2022/12/06 13:30:17;;;;;;;2.55;0.60;;;10.80;99.90;;;;;;5049016;28;20067;-61
2022/12/06 13:33:06;;;;;;;1.70;0.88;;;10.50;99.90;;;;;;5065084;28;20533;-58
2022/12/06 13:35:39;;;;;;;3.90;0.50;;;10.10;99.90;;;;;;5059659;28;20040;-56
2022/12/06 13:38:16;;;;;;;2.40;0.50;;;9.60;99.90;;;;;;5052856;28;20086;-56